createdAt,value
2018-01-11T00:00:46.961Z,6.30
2018-01-11T00:03:51.981Z,7.57
2018-01-11T00:06:57.754Z,7.53
2018-01-11T00:10:02.914Z,6.60
2018-01-11T00:13:08.658Z,10.70
2018-01-11T00:16:14.243Z,14.03
2018-01-11T00:19:19.625Z,9.93
2018-01-11T00:22:24.774Z,7.73
2018-01-11T00:25:30.022Z,7.00
2018-01-11T00:28:34.746Z,7.10
2018-01-11T00:31:40.037Z,8.20
2018-01-11T00:34:51.538Z,8.20
2018-01-11T00:37:57.270Z,9.00
2018-01-11T00:41:02.785Z,9.50
2018-01-11T00:44:07.613Z,8.10
2018-01-11T00:47:12.758Z,8.27
2018-01-11T00:50:18.541Z,8.40
2018-01-11T00:53:24.110Z,10.23
2018-01-11T00:56:28.779Z,11.93
2018-01-11T00:59:34.334Z,15.43
2018-01-11T01:02:39.343Z,11.00
2018-01-11T01:05:44.349Z,8.33
2018-01-11T01:08:50.587Z,8.33
2018-01-11T01:11:56.777Z,9.63
2018-01-11T01:15:01.629Z,7.43
2018-01-11T01:18:07.724Z,10.67
2018-01-11T01:21:13.181Z,10.90
2018-01-11T01:24:18.673Z,10.00
2018-01-11T01:27:24.539Z,11.03
2018-01-11T01:30:30.390Z,13.10
2018-01-11T01:33:35.245Z,11.00
2018-01-11T01:36:41.013Z,9.47
2018-01-11T01:39:47.584Z,9.33
2018-01-11T01:42:52.629Z,8.50
2018-01-11T01:45:57.928Z,8.77
2018-01-11T01:49:02.619Z,8.37
2018-01-11T01:52:09.030Z,8.33
2018-01-11T01:55:14.443Z,8.47
2018-01-11T01:58:19.279Z,8.00
2018-01-11T02:01:24.378Z,8.00
2018-01-11T02:04:30.850Z,8.30
2018-01-11T02:07:36.674Z,8.53
2018-01-11T02:10:42.109Z,8.50
2018-01-11T02:13:47.405Z,8.47
2018-01-11T02:16:53.384Z,9.40
2018-01-11T02:19:59.690Z,9.20
2018-01-11T02:23:04.890Z,8.80
2018-01-11T02:26:09.937Z,9.20
2018-01-11T02:29:14.945Z,8.40
2018-01-11T02:32:20.078Z,8.77
2018-01-11T02:35:25.642Z,8.47
2018-01-11T02:38:30.964Z,7.30
2018-01-11T02:41:37.686Z,8.40
2018-01-11T02:44:43.038Z,7.10
2018-01-11T02:47:48.282Z,8.17
2018-01-11T02:50:53.795Z,7.30
2018-01-11T02:53:59.006Z,6.67
2018-01-11T02:57:05.506Z,6.40
2018-01-11T03:00:10.873Z,7.20
2018-01-11T03:03:16.111Z,6.43
2018-01-11T03:06:21.994Z,6.00
2018-01-11T03:09:27.381Z,6.87
2018-01-11T03:12:33.173Z,7.03
2018-01-11T03:15:38.130Z,6.20
2018-01-11T03:18:43.256Z,6.30
2018-01-11T03:21:48.629Z,6.10
2018-01-11T03:24:54.202Z,6.50
2018-01-11T03:27:59.696Z,6.80
2018-01-11T03:31:05.693Z,6.67
2018-01-11T03:34:11.375Z,6.47
2018-01-11T03:37:16.437Z,6.90
2018-01-11T03:40:21.825Z,5.97
2018-01-11T03:43:27.309Z,6.70
2018-01-11T03:46:32.601Z,6.50
2018-01-11T03:49:37.557Z,6.30
2018-01-11T03:52:42.634Z,6.67
2018-01-11T03:55:48.173Z,6.67
2018-01-11T03:58:58.629Z,6.40
2018-01-11T04:02:04.902Z,6.20
2018-01-11T04:05:10.842Z,6.90
2018-01-11T04:08:17.379Z,6.63
2018-01-11T04:11:22.874Z,6.97
2018-01-11T04:14:27.730Z,6.37
2018-01-11T04:17:32.678Z,6.47
2018-01-11T04:20:37.409Z,6.60
2018-01-11T04:23:42.157Z,7.17
2018-01-11T04:26:47.239Z,6.17
2018-01-11T04:29:52.670Z,6.40
2018-01-11T04:32:57.948Z,6.27
2018-01-11T04:36:03.805Z,6.50
2018-01-11T04:39:08.742Z,8.07
2018-01-11T04:42:13.482Z,7.60
2018-01-11T04:45:19.217Z,6.80
2018-01-11T04:48:24.782Z,5.80
2018-01-11T04:51:29.465Z,5.30
2018-01-11T04:54:35.166Z,6.70
2018-01-11T04:57:40.762Z,6.10
2018-01-11T05:01:01.046Z,6.73
2018-01-11T05:04:06.011Z,8.03
2018-01-11T05:07:11.234Z,7.17
2018-01-11T05:10:17.212Z,8.10
2018-01-11T05:13:23.349Z,8.87
2018-01-11T05:16:29.290Z,8.60
2018-01-11T05:19:35.280Z,9.60
2018-01-11T05:22:40.725Z,7.87
2018-01-11T05:25:45.686Z,8.40
2018-01-11T05:28:51.435Z,8.53
2018-01-11T05:31:57.017Z,9.10
2018-01-11T05:35:02.042Z,7.90
2018-01-11T05:38:07.481Z,9.60
2018-01-11T05:41:12.982Z,9.07
2018-01-11T05:44:18.885Z,7.63
2018-01-11T05:47:24.517Z,9.40
2018-01-11T05:50:30.213Z,10.27
2018-01-11T05:53:35.498Z,8.80
2018-01-11T05:56:42.006Z,9.90
2018-01-11T05:59:48.220Z,10.60
2018-01-11T06:02:53.461Z,9.63
2018-01-11T06:05:59.124Z,10.23
2018-01-11T06:09:04.379Z,10.50
2018-01-11T06:12:09.922Z,10.53
2018-01-11T06:15:15.379Z,9.80
2018-01-11T06:18:20.747Z,10.13
2018-01-11T06:21:27.170Z,10.33
2018-01-11T06:24:32.967Z,9.90
2018-01-11T06:27:38.102Z,10.00
2018-01-11T06:30:42.893Z,10.20
2018-01-11T06:33:48.006Z,10.57
2018-01-11T06:36:53.557Z,9.60
2018-01-11T06:39:59.433Z,9.87
2018-01-11T06:43:04.781Z,10.10
2018-01-11T06:46:10.866Z,10.10
2018-01-11T06:49:16.945Z,9.03
2018-01-11T06:52:22.054Z,9.27
2018-01-11T06:55:27.453Z,10.03
2018-01-11T06:58:33.133Z,9.53
2018-01-11T07:01:38.444Z,9.70
2018-01-11T07:04:43.421Z,9.20
2018-01-11T07:07:48.901Z,9.37
2018-01-11T07:10:54.112Z,8.73
2018-01-11T07:13:59.710Z,8.57
2018-01-11T07:17:04.905Z,9.10
2018-01-11T07:20:10.301Z,8.33
2018-01-11T07:23:15.216Z,7.73
2018-01-11T07:26:20.746Z,8.70
2018-01-11T07:29:26.395Z,8.00
2018-01-11T07:32:32.938Z,8.47
2018-01-11T07:35:38.037Z,8.27
2018-01-11T07:38:44.026Z,8.70
2018-01-11T07:41:49.194Z,8.87
2018-01-11T07:44:54.273Z,8.73
2018-01-11T07:47:59.974Z,9.87
2018-01-11T07:51:04.863Z,10.37
2018-01-11T07:54:11.067Z,10.23
2018-01-11T07:57:16.124Z,9.17
2018-01-11T08:00:21.859Z,9.63
2018-01-11T08:03:27.654Z,9.97
2018-01-11T08:06:32.806Z,9.77
2018-01-11T08:09:37.981Z,10.10
2018-01-11T08:12:42.988Z,10.20
2018-01-11T08:15:48.378Z,10.93
2018-01-11T08:18:53.626Z,10.80
2018-01-11T08:21:58.733Z,9.33
2018-01-11T08:25:03.910Z,10.13
2018-01-11T08:28:09.551Z,9.03
2018-01-11T08:31:14.966Z,8.63
2018-01-11T08:34:20.513Z,7.60
2018-01-11T08:37:25.370Z,8.37
2018-01-11T08:40:31.341Z,8.50
2018-01-11T08:43:36.693Z,7.90
2018-01-11T08:46:42.494Z,8.40
2018-01-11T08:49:48.349Z,7.70
2018-01-11T08:52:53.933Z,9.20
2018-01-11T08:55:58.621Z,8.17
2018-01-11T08:59:04.174Z,8.20
2018-01-11T09:02:09.790Z,7.90
2018-01-11T09:05:15.351Z,8.63
2018-01-11T09:08:20.513Z,7.30
2018-01-11T09:11:25.674Z,7.50
2018-01-11T09:14:30.979Z,7.97
2018-01-11T09:17:36.731Z,7.97
2018-01-11T09:20:43.230Z,8.30
2018-01-11T09:23:49.562Z,8.03
2018-01-11T09:26:54.353Z,8.20
2018-01-11T09:29:59.898Z,8.67
2018-01-11T09:33:05.475Z,9.27
2018-01-11T09:36:11.175Z,9.23
2018-01-11T09:39:16.370Z,9.60
2018-01-11T09:42:22.369Z,9.80
2018-01-11T09:45:28.133Z,9.40
2018-01-11T09:48:33.653Z,8.83
2018-01-11T09:51:39.910Z,9.07
2018-01-11T09:54:46.409Z,8.73
2018-01-11T09:57:51.461Z,9.53
2018-01-11T10:00:57.946Z,9.50
2018-01-11T10:04:03.321Z,9.87
2018-01-11T10:07:08.549Z,8.87
2018-01-11T10:10:13.903Z,9.37
2018-01-11T10:13:19.342Z,10.03
2018-01-11T10:16:24.828Z,9.83
2018-01-11T10:19:29.552Z,10.90
2018-01-11T10:22:34.721Z,10.70
2018-01-11T10:25:39.950Z,10.90
2018-01-11T10:28:45.409Z,10.40
2018-01-11T10:31:50.474Z,10.07
2018-01-11T10:34:55.323Z,10.37
2018-01-11T10:38:00.777Z,10.67
2018-01-11T10:41:06.144Z,10.30
2018-01-11T10:44:11.886Z,10.47
2018-01-11T10:47:17.581Z,10.30
2018-01-11T10:50:23.242Z,10.30
2018-01-11T10:53:29.029Z,9.47
2018-01-11T10:56:34.537Z,9.20
2018-01-11T10:59:39.533Z,8.60
2018-01-11T11:02:51.232Z,8.80
2018-01-11T11:05:56.375Z,9.63
2018-01-11T11:09:01.669Z,9.93
2018-01-11T11:12:07.442Z,10.00
2018-01-11T11:15:13.106Z,8.83
2018-01-11T11:18:18.662Z,9.37
2018-01-11T11:21:23.845Z,8.50
2018-01-11T11:24:28.938Z,8.37
2018-01-11T11:27:34.342Z,9.23
2018-01-11T11:30:40.218Z,8.53
2018-01-11T11:33:46.196Z,8.80
2018-01-11T11:36:52.134Z,9.07
2018-01-11T11:39:57.449Z,8.70
2018-01-11T11:43:03.146Z,8.20
2018-01-11T11:46:08.323Z,8.70
2018-01-11T11:49:14.604Z,7.23
2018-01-11T11:52:20.790Z,8.20
2018-01-11T11:55:26.833Z,7.63
2018-01-11T11:58:32.309Z,8.13
2018-01-11T12:01:37.834Z,6.73
2018-01-11T12:04:42.908Z,7.80
2018-01-11T12:07:48.412Z,7.40
2018-01-11T12:10:53.808Z,7.47
2018-01-11T12:13:58.785Z,8.60
2018-01-11T12:17:03.910Z,8.57
2018-01-11T12:20:09.817Z,8.23
2018-01-11T12:23:15.370Z,8.67
2018-01-11T12:26:20.894Z,7.83
2018-01-11T12:29:25.969Z,8.57
2018-01-11T12:32:32.653Z,8.93
2018-01-11T12:35:39.086Z,8.20
2018-01-11T12:38:45.507Z,8.27
2018-01-11T12:41:50.466Z,8.20
2018-01-11T12:44:56.241Z,8.60
2018-01-11T12:48:01.807Z,8.47
2018-01-11T12:51:06.742Z,7.40
2018-01-11T12:54:12.430Z,7.30
2018-01-11T12:57:19.313Z,8.10
2018-01-11T13:00:24.865Z,7.60
2018-01-11T13:03:29.943Z,6.83
2018-01-11T13:06:35.813Z,8.07
2018-01-11T13:09:41.082Z,8.60
2018-01-11T13:12:46.662Z,8.70
2018-01-11T13:15:52.825Z,6.90
2018-01-11T13:18:58.074Z,7.50
2018-01-11T13:22:03.861Z,7.80
2018-01-11T13:25:09.904Z,6.40
2018-01-11T13:28:16.136Z,7.53
2018-01-11T13:31:21.829Z,7.33
2018-01-11T13:34:27.042Z,8.70
2018-01-11T13:37:32.840Z,6.00
2018-01-11T13:40:37.738Z,7.30
2018-01-11T13:43:44.041Z,7.20
2018-01-11T13:46:49.474Z,8.00
2018-01-11T13:49:54.419Z,7.97
2018-01-11T13:52:59.824Z,8.13
2018-01-11T13:56:05.197Z,8.60
2018-01-11T13:59:10.730Z,8.90
2018-01-11T14:02:15.836Z,9.60
2018-01-11T14:05:21.660Z,11.90
2018-01-11T14:08:26.554Z,12.63
2018-01-11T14:11:32.281Z,12.40
2018-01-11T14:14:37.702Z,11.90
2018-01-11T14:17:42.489Z,10.77
2018-01-11T14:20:47.832Z,11.10
2018-01-11T14:23:53.102Z,12.00
2018-01-11T14:26:58.160Z,14.30
2018-01-11T14:30:03.170Z,14.33
2018-01-11T14:33:08.470Z,15.50
2018-01-11T14:36:13.442Z,14.10
2018-01-11T14:39:18.998Z,13.93
2018-01-11T14:42:25.397Z,11.50
2018-01-11T14:45:31.262Z,10.97
2018-01-11T14:48:37.241Z,11.17
2018-01-11T14:51:42.874Z,11.00
2018-01-11T14:54:48.253Z,12.03
2018-01-11T14:57:54.025Z,12.93
2018-01-11T15:00:59.594Z,14.67
2018-01-11T15:04:04.729Z,13.10
2018-01-11T15:07:10.163Z,12.20
2018-01-11T15:10:15.538Z,12.10
2018-01-11T15:13:20.905Z,10.80
2018-01-11T15:16:26.809Z,11.97
2018-01-11T15:19:32.974Z,11.30
2018-01-11T15:22:39.628Z,11.60
2018-01-11T15:25:44.715Z,11.97
2018-01-11T15:28:51.273Z,11.50
2018-01-11T15:31:57.677Z,13.23
2018-01-11T15:35:03.417Z,11.93
2018-01-11T15:38:09.271Z,11.80
2018-01-11T15:41:14.837Z,11.93
2018-01-11T15:44:20.551Z,12.50
2018-01-11T15:47:25.731Z,12.87
2018-01-11T15:50:32.130Z,12.60
2018-01-11T15:53:37.990Z,11.70
2018-01-11T15:56:43.698Z,13.23
2018-01-11T15:59:49.265Z,11.63
2018-01-11T16:02:54.913Z,11.87
2018-01-11T16:06:00.313Z,11.97
2018-01-11T16:09:05.821Z,12.30
2018-01-11T16:12:11.181Z,12.03
2018-01-11T16:15:16.450Z,12.23
2018-01-11T16:18:21.293Z,12.10
2018-01-11T16:21:26.869Z,13.67
2018-01-11T16:24:32.322Z,12.93
2018-01-11T16:27:37.814Z,12.30
2018-01-11T16:30:42.941Z,12.77
2018-01-11T16:33:48.198Z,12.23
2018-01-11T16:36:54.589Z,12.00
2018-01-11T16:40:00.215Z,12.60
2018-01-11T16:43:07.432Z,12.60
2018-01-11T16:46:13.413Z,14.13
2018-01-11T16:49:18.906Z,12.93
2018-01-11T16:52:24.232Z,13.10
2018-01-11T16:55:31.246Z,12.93
2018-01-11T16:58:36.368Z,12.57
2018-01-11T17:01:43.214Z,14.00
2018-01-11T17:04:49.482Z,15.97
2018-01-11T17:07:54.578Z,18.57
2018-01-11T17:10:59.926Z,17.20
2018-01-11T17:14:05.038Z,17.17
2018-01-11T17:17:10.136Z,16.80
2018-01-11T17:20:15.382Z,15.40
2018-01-11T17:23:20.372Z,15.27
2018-01-11T17:26:25.873Z,15.77
2018-01-11T17:29:31.277Z,16.70
2018-01-11T17:32:37.361Z,16.47
2018-01-11T17:35:42.183Z,17.77
2018-01-11T17:38:47.313Z,16.50
2018-01-11T17:41:52.977Z,16.13
2018-01-11T17:44:57.820Z,15.80
2018-01-11T17:48:03.102Z,16.40
2018-01-11T17:51:12.772Z,18.33
2018-01-11T17:54:18.433Z,16.87
2018-01-11T17:57:24.118Z,19.07
2018-01-11T18:00:30.615Z,15.53
2018-01-11T18:03:36.304Z,17.87
2018-01-11T18:06:41.473Z,17.50
2018-01-11T18:09:46.493Z,18.80
2018-01-11T18:12:53.394Z,16.90
2018-01-11T18:15:59.422Z,18.80
2018-01-11T18:19:04.701Z,20.23
2018-01-11T18:22:09.729Z,20.77
2018-01-11T18:25:15.197Z,19.50
2018-01-11T18:28:20.141Z,19.47
2018-01-11T18:31:26.226Z,18.93
2018-01-11T18:34:31.104Z,19.00
2018-01-11T18:37:36.701Z,18.50
2018-01-11T18:40:41.976Z,19.40
2018-01-11T18:43:47.789Z,19.30
2018-01-11T18:46:52.795Z,16.33
2018-01-11T18:49:58.714Z,18.43
2018-01-11T18:53:05.142Z,17.30
2018-01-11T18:56:10.333Z,17.20
2018-01-11T18:59:15.513Z,17.10
2018-01-11T19:02:20.849Z,16.80
2018-01-11T19:05:26.329Z,16.70
2018-01-11T19:08:36.447Z,17.63
2018-01-11T19:11:43.857Z,17.20
2018-01-11T19:14:49.645Z,16.60
2018-01-11T19:17:55.390Z,17.43
2018-01-11T19:21:01.206Z,16.40
2018-01-11T19:24:05.982Z,17.80
2018-01-11T19:27:10.714Z,18.20
2018-01-11T19:30:15.617Z,17.00
2018-01-11T19:33:21.019Z,17.20
2018-01-11T19:36:26.070Z,16.33
2018-01-11T19:39:31.393Z,16.60
2018-01-11T19:42:36.758Z,17.00
2018-01-11T19:45:41.618Z,16.57
2018-01-11T19:48:46.436Z,15.37
2018-01-11T19:51:52.106Z,17.07
2018-01-11T19:54:57.590Z,16.10
2018-01-11T19:58:02.998Z,16.73
2018-01-11T20:01:08.446Z,15.83
2018-01-11T20:04:14.097Z,15.60
2018-01-11T20:07:19.690Z,15.40
2018-01-11T20:10:25.758Z,15.17
2018-01-11T20:13:30.854Z,16.90
2018-01-11T20:16:36.287Z,15.40
2018-01-11T20:19:41.942Z,15.57
2018-01-11T20:22:47.234Z,15.63
2018-01-11T20:25:52.786Z,15.97
2018-01-11T20:28:58.537Z,15.03
2018-01-11T20:32:04.874Z,16.77
2018-01-11T20:35:09.895Z,16.87
2018-01-11T20:38:15.278Z,16.50
2018-01-11T20:41:20.186Z,19.10
2018-01-11T20:44:25.758Z,18.43
2018-01-11T20:47:31.241Z,18.83
2018-01-11T20:50:37.585Z,17.80
2018-01-11T20:53:43.973Z,18.03
2018-01-11T20:56:49.586Z,19.00
2018-01-11T20:59:54.526Z,19.67
2018-01-11T21:02:59.618Z,19.20
2018-01-11T21:06:05.112Z,20.07
2018-01-11T21:09:11.193Z,19.50
2018-01-11T21:12:16.710Z,18.80
2018-01-11T21:15:22.217Z,18.90
2018-01-11T21:18:27.870Z,21.07
2018-01-11T21:21:33.357Z,20.20
2018-01-11T21:24:39.146Z,20.63
2018-01-11T21:27:44.690Z,19.60
2018-01-11T21:30:49.710Z,19.90
2018-01-11T21:33:54.701Z,19.93
2018-01-11T21:37:00.158Z,19.47
2018-01-11T21:40:05.294Z,20.17
2018-01-11T21:43:10.532Z,19.77
2018-01-11T21:46:15.481Z,20.30
2018-01-11T21:49:21.152Z,20.07
2018-01-11T21:52:26.281Z,19.90
2018-01-11T21:55:31.605Z,20.63
2018-01-11T21:58:36.693Z,19.70
2018-01-11T22:01:41.922Z,19.63
2018-01-11T22:04:47.238Z,21.00
2018-01-11T22:07:52.459Z,19.37
2018-01-11T22:10:58.082Z,20.40
2018-01-11T22:14:03.107Z,21.40
2018-01-11T22:17:08.701Z,19.80
2018-01-11T22:20:13.990Z,19.30
2018-01-11T22:23:19.368Z,20.70
2018-01-11T22:26:24.673Z,19.97
2018-01-11T22:29:38.223Z,19.77
2018-01-11T22:32:43.902Z,21.20
2018-01-11T22:35:48.745Z,20.67
2018-01-11T22:38:54.037Z,18.90
2018-01-11T22:41:59.428Z,21.63
2018-01-11T22:45:04.640Z,20.60
2018-01-11T22:48:10.352Z,21.20
2018-01-11T22:51:15.813Z,20.80
2018-01-11T22:54:22.518Z,19.87
2018-01-11T22:57:27.530Z,21.57
2018-01-11T23:00:38.162Z,20.17
2018-01-11T23:03:43.465Z,20.57
2018-01-11T23:06:48.981Z,21.80
2018-01-11T23:09:54.717Z,21.00
2018-01-11T23:12:59.584Z,20.97
2018-01-11T23:16:05.067Z,21.00
2018-01-11T23:19:11.411Z,20.83
2018-01-11T23:22:17.438Z,20.67
2018-01-11T23:25:22.337Z,21.30
2018-01-11T23:28:27.117Z,22.73
2018-01-11T23:31:32.343Z,22.13
2018-01-11T23:34:38.044Z,22.33
2018-01-11T23:37:43.616Z,22.20
2018-01-11T23:40:49.189Z,22.10
2018-01-11T23:43:54.298Z,21.10
2018-01-11T23:46:59.894Z,21.70
2018-01-11T23:50:04.934Z,21.17
2018-01-11T23:53:10.418Z,20.73
2018-01-11T23:56:16.155Z,19.80
2018-01-11T23:59:22.532Z,21.17
